sensor_id;sensor_type;location;lat;lon;timestamp;P1;durP1;ratioP1;P2;durP2;ratioP2
73296;SDS011;61524;50.938;11.396;2024-01-30T00:01:17;5.97;;;2.73;;
73296;SDS011;61524;50.938;11.396;2024-01-30T00:03:42;6.80;;;3.17;;
73296;SDS011;61524;50.938;11.396;2024-01-30T00:06:08;6.03;;;2.43;;
73296;SDS011;61524;50.938;11.396;2024-01-30T00:08:33;6.68;;;2.78;;
73296;SDS011;61524;50.938;11.396;2024-01-30T00:10:58;7.25;;;2.67;;
73296;SDS011;61524;50.938;11.396;2024-01-30T00:13:24;7.47;;;2.58;;
73296;SDS011;61524;50.938;11.396;2024-01-30T00:15:49;6.10;;;3.00;;
73296;SDS011;61524;50.938;11.396;2024-01-30T00:18:14;8.75;;;2.60;;
73296;SDS011;61524;50.938;11.396;2024-01-30T00:20:40;7.80;;;2.50;;
73296;SDS011;61524;50.938;11.396;2024-01-30T00:23:05;4.30;;;2.58;;
73296;SDS011;61524;50.938;11.396;2024-01-30T00:25:30;4.60;;;2.43;;
73296;SDS011;61524;50.938;11.396;2024-01-30T00:27:56;5.60;;;2.57;;
73296;SDS011;61524;50.938;11.396;2024-01-30T00:30:21;5.30;;;2.80;;
73296;SDS011;61524;50.938;11.396;2024-01-30T00:32:46;6.07;;;2.63;;
73296;SDS011;61524;50.938;11.396;2024-01-30T00:35:12;5.87;;;2.80;;
73296;SDS011;61524;50.938;11.396;2024-01-30T00:37:37;4.85;;;2.63;;
73296;SDS011;61524;50.938;11.396;2024-01-30T00:40:02;6.07;;;2.60;;
73296;SDS011;61524;50.938;11.396;2024-01-30T00:42:28;6.28;;;2.55;;
73296;SDS011;61524;50.938;11.396;2024-01-30T00:44:54;6.30;;;2.80;;
73296;SDS011;61524;50.938;11.396;2024-01-30T00:47:19;6.17;;;2.40;;
73296;SDS011;61524;50.938;11.396;2024-01-30T00:49:44;4.67;;;2.47;;
73296;SDS011;61524;50.938;11.396;2024-01-30T00:52:09;7.47;;;2.53;;
73296;SDS011;61524;50.938;11.396;2024-01-30T00:54:35;4.13;;;2.42;;
73296;SDS011;61524;50.938;11.396;2024-01-30T00:57:00;6.53;;;2.50;;
73296;SDS011;61524;50.938;11.396;2024-01-30T00:59:25;5.63;;;2.80;;
73296;SDS011;61524;50.938;11.396;2024-01-30T01:01:50;6.57;;;2.80;;
73296;SDS011;61524;50.938;11.396;2024-01-30T01:04:16;5.28;;;2.80;;
73296;SDS011;61524;50.938;11.396;2024-01-30T01:06:42;4.38;;;2.28;;
73296;SDS011;61524;50.938;11.396;2024-01-30T01:09:09;6.18;;;2.75;;
73296;SDS011;61524;50.938;11.396;2024-01-30T01:11:35;7.05;;;2.70;;
73296;SDS011;61524;50.938;11.396;2024-01-30T01:14:00;8.95;;;2.97;;
73296;SDS011;61524;50.938;11.396;2024-01-30T01:16:25;5.87;;;2.67;;
73296;SDS011;61524;50.938;11.396;2024-01-30T01:18:51;4.72;;;2.15;;
73296;SDS011;61524;50.938;11.396;2024-01-30T01:21:16;6.47;;;2.20;;
73296;SDS011;61524;50.938;11.396;2024-01-30T01:23:41;4.87;;;2.63;;
73296;SDS011;61524;50.938;11.396;2024-01-30T01:26:07;8.57;;;2.58;;
73296;SDS011;61524;50.938;11.396;2024-01-30T01:28:32;6.20;;;2.67;;
73296;SDS011;61524;50.938;11.396;2024-01-30T01:30:58;7.85;;;2.15;;
73296;SDS011;61524;50.938;11.396;2024-01-30T01:33:30;6.28;;;2.45;;
73296;SDS011;61524;50.938;11.396;2024-01-30T01:35:55;5.37;;;2.70;;
73296;SDS011;61524;50.938;11.396;2024-01-30T01:38:20;7.22;;;2.42;;
73296;SDS011;61524;50.938;11.396;2024-01-30T01:40:46;3.50;;;1.80;;
73296;SDS011;61524;50.938;11.396;2024-01-30T01:43:11;4.78;;;2.08;;
73296;SDS011;61524;50.938;11.396;2024-01-30T01:45:36;5.13;;;2.30;;
73296;SDS011;61524;50.938;11.396;2024-01-30T01:48:02;4.93;;;3.00;;
73296;SDS011;61524;50.938;11.396;2024-01-30T01:50:27;6.78;;;2.92;;
73296;SDS011;61524;50.938;11.396;2024-01-30T01:52:53;4.78;;;2.53;;
73296;SDS011;61524;50.938;11.396;2024-01-30T01:55:20;6.20;;;2.83;;
73296;SDS011;61524;50.938;11.396;2024-01-30T01:57:50;5.68;;;2.75;;
73296;SDS011;61524;50.938;11.396;2024-01-30T02:00:16;5.97;;;2.85;;
73296;SDS011;61524;50.938;11.396;2024-01-30T02:02:42;6.32;;;2.65;;
73296;SDS011;61524;50.938;11.396;2024-01-30T02:05:08;7.50;;;3.50;;
73296;SDS011;61524;50.938;11.396;2024-01-30T02:07:34;5.50;;;2.80;;
73296;SDS011;61524;50.938;11.396;2024-01-30T02:09:59;5.32;;;2.78;;
73296;SDS011;61524;50.938;11.396;2024-01-30T02:12:24;5.80;;;2.53;;
73296;SDS011;61524;50.938;11.396;2024-01-30T02:14:50;6.37;;;2.80;;
73296;SDS011;61524;50.938;11.396;2024-01-30T02:17:15;4.87;;;2.47;;
73296;SDS011;61524;50.938;11.396;2024-01-30T02:19:41;4.93;;;2.47;;
73296;SDS011;61524;50.938;11.396;2024-01-30T02:22:06;6.10;;;2.42;;
73296;SDS011;61524;50.938;11.396;2024-01-30T02:24:32;8.98;;;3.03;;
73296;SDS011;61524;50.938;11.396;2024-01-30T02:26:57;6.10;;;2.93;;
73296;SDS011;61524;50.938;11.396;2024-01-30T02:29:22;7.90;;;3.00;;
73296;SDS011;61524;50.938;11.396;2024-01-30T02:31:48;5.90;;;3.00;;
73296;SDS011;61524;50.938;11.396;2024-01-30T02:34:13;4.80;;;2.67;;
73296;SDS011;61524;50.938;11.396;2024-01-30T02:36:42;4.63;;;2.30;;
73296;SDS011;61524;50.938;11.396;2024-01-30T02:39:07;6.30;;;2.58;;
73296;SDS011;61524;50.938;11.396;2024-01-30T02:41:33;6.82;;;3.08;;
73296;SDS011;61524;50.938;11.396;2024-01-30T02:43:58;6.13;;;2.40;;
73296;SDS011;61524;50.938;11.396;2024-01-30T02:46:23;5.83;;;2.90;;
73296;SDS011;61524;50.938;11.396;2024-01-30T02:48:48;5.07;;;2.23;;
73296;SDS011;61524;50.938;11.396;2024-01-30T02:51:14;5.43;;;2.77;;
73296;SDS011;61524;50.938;11.396;2024-01-30T02:53:39;6.93;;;2.90;;
73296;SDS011;61524;50.938;11.396;2024-01-30T02:56:04;7.13;;;2.80;;
73296;SDS011;61524;50.938;11.396;2024-01-30T02:58:30;4.53;;;2.53;;
73296;SDS011;61524;50.938;11.396;2024-01-30T03:00:56;7.18;;;2.95;;
73296;SDS011;61524;50.938;11.396;2024-01-30T03:03:21;4.83;;;2.57;;
73296;SDS011;61524;50.938;11.396;2024-01-30T03:05:46;8.83;;;3.90;;
73296;SDS011;61524;50.938;11.396;2024-01-30T03:08:12;14.25;;;5.38;;
73296;SDS011;61524;50.938;11.396;2024-01-30T03:10:37;11.23;;;4.90;;
73296;SDS011;61524;50.938;11.396;2024-01-30T03:13:02;12.93;;;5.47;;
73296;SDS011;61524;50.938;11.396;2024-01-30T03:15:27;10.88;;;4.85;;
73296;SDS011;61524;50.938;11.396;2024-01-30T03:17:53;7.47;;;3.23;;
73296;SDS011;61524;50.938;11.396;2024-01-30T03:20:18;4.93;;;2.60;;
73296;SDS011;61524;50.938;11.396;2024-01-30T03:22:43;5.77;;;2.33;;
73296;SDS011;61524;50.938;11.396;2024-01-30T03:25:09;4.93;;;2.73;;
73296;SDS011;61524;50.938;11.396;2024-01-30T03:27:34;4.67;;;2.30;;
73296;SDS011;61524;50.938;11.396;2024-01-30T03:29:59;7.15;;;2.50;;
73296;SDS011;61524;50.938;11.396;2024-01-30T03:32:25;6.15;;;2.72;;
73296;SDS011;61524;50.938;11.396;2024-01-30T03:34:50;4.60;;;2.28;;
73296;SDS011;61524;50.938;11.396;2024-01-30T03:37:15;4.63;;;2.30;;
73296;SDS011;61524;50.938;11.396;2024-01-30T03:39:40;5.70;;;2.67;;
73296;SDS011;61524;50.938;11.396;2024-01-30T03:42:06;4.30;;;2.20;;
73296;SDS011;61524;50.938;11.396;2024-01-30T03:44:31;6.53;;;2.63;;
73296;SDS011;61524;50.938;11.396;2024-01-30T03:46:56;6.43;;;2.57;;
73296;SDS011;61524;50.938;11.396;2024-01-30T03:49:22;5.27;;;2.27;;
73296;SDS011;61524;50.938;11.396;2024-01-30T03:51:47;5.30;;;2.70;;
73296;SDS011;61524;50.938;11.396;2024-01-30T03:54:12;6.72;;;2.40;;
73296;SDS011;61524;50.938;11.396;2024-01-30T03:56:38;5.10;;;2.72;;
73296;SDS011;61524;50.938;11.396;2024-01-30T03:59:03;5.83;;;2.53;;
73296;SDS011;61524;50.938;11.396;2024-01-30T04:01:28;6.88;;;3.03;;
73296;SDS011;61524;50.938;11.396;2024-01-30T04:03:54;6.27;;;2.77;;
73296;SDS011;61524;50.938;11.396;2024-01-30T04:06:19;7.53;;;3.20;;
73296;SDS011;61524;50.938;11.396;2024-01-30T04:08:44;6.07;;;2.83;;
73296;SDS011;61524;50.938;11.396;2024-01-30T04:11:10;6.03;;;2.80;;
73296;SDS011;61524;50.938;11.396;2024-01-30T04:13:35;5.37;;;2.60;;
73296;SDS011;61524;50.938;11.396;2024-01-30T04:16:01;5.50;;;2.97;;
73296;SDS011;61524;50.938;11.396;2024-01-30T04:18:26;7.28;;;2.55;;
73296;SDS011;61524;50.938;11.396;2024-01-30T04:20:52;5.53;;;2.85;;
73296;SDS011;61524;50.938;11.396;2024-01-30T04:23:17;5.20;;;2.60;;
73296;SDS011;61524;50.938;11.396;2024-01-30T04:25:42;5.90;;;2.60;;
73296;SDS011;61524;50.938;11.396;2024-01-30T04:28:07;5.37;;;2.80;;
73296;SDS011;61524;50.938;11.396;2024-01-30T04:30:33;4.88;;;2.42;;
73296;SDS011;61524;50.938;11.396;2024-01-30T04:32:58;7.13;;;2.17;;
73296;SDS011;61524;50.938;11.396;2024-01-30T04:35:23;5.60;;;2.40;;
73296;SDS011;61524;50.938;11.396;2024-01-30T04:37:51;6.32;;;2.50;;
73296;SDS011;61524;50.938;11.396;2024-01-30T04:40:17;5.78;;;2.50;;
73296;SDS011;61524;50.938;11.396;2024-01-30T04:42:42;6.00;;;2.72;;
73296;SDS011;61524;50.938;11.396;2024-01-30T04:45:07;6.63;;;2.70;;
73296;SDS011;61524;50.938;11.396;2024-01-30T04:47:33;8.23;;;3.25;;
73296;SDS011;61524;50.938;11.396;2024-01-30T04:49:58;6.37;;;3.23;;
73296;SDS011;61524;50.938;11.396;2024-01-30T04:52:23;9.30;;;3.37;;
73296;SDS011;61524;50.938;11.396;2024-01-30T04:54:48;5.37;;;2.80;;
73296;SDS011;61524;50.938;11.396;2024-01-30T04:57:14;10.87;;;3.33;;
73296;SDS011;61524;50.938;11.396;2024-01-30T04:59:39;5.43;;;2.67;;
73296;SDS011;61524;50.938;11.396;2024-01-30T05:02:04;6.75;;;3.30;;
73296;SDS011;61524;50.938;11.396;2024-01-30T05:04:30;10.32;;;4.15;;
73296;SDS011;61524;50.938;11.396;2024-01-30T05:06:55;14.20;;;7.00;;
73296;SDS011;61524;50.938;11.396;2024-01-30T05:09:20;16.65;;;6.85;;
73296;SDS011;61524;50.938;11.396;2024-01-30T05:11:46;16.33;;;6.88;;
73296;SDS011;61524;50.938;11.396;2024-01-30T05:14:11;12.90;;;6.60;;
73296;SDS011;61524;50.938;11.396;2024-01-30T05:16:37;13.15;;;5.22;;
73296;SDS011;61524;50.938;11.396;2024-01-30T05:19:02;10.40;;;4.40;;
73296;SDS011;61524;50.938;11.396;2024-01-30T05:21:27;9.50;;;4.63;;
73296;SDS011;61524;50.938;11.396;2024-01-30T05:23:53;14.83;;;6.00;;
73296;SDS011;61524;50.938;11.396;2024-01-30T05:26:18;10.27;;;4.27;;
73296;SDS011;61524;50.938;11.396;2024-01-30T05:28:43;6.47;;;3.38;;
73296;SDS011;61524;50.938;11.396;2024-01-30T05:31:11;7.65;;;3.83;;
73296;SDS011;61524;50.938;11.396;2024-01-30T05:33:37;6.65;;;3.63;;
73296;SDS011;61524;50.938;11.396;2024-01-30T05:36:02;10.98;;;3.67;;
73296;SDS011;61524;50.938;11.396;2024-01-30T05:38:29;8.48;;;4.30;;
73296;SDS011;61524;50.938;11.396;2024-01-30T05:40:55;8.25;;;3.28;;
73296;SDS011;61524;50.938;11.396;2024-01-30T05:43:20;9.60;;;3.17;;
73296;SDS011;61524;50.938;11.396;2024-01-30T05:45:45;7.60;;;3.57;;
73296;SDS011;61524;50.938;11.396;2024-01-30T05:48:11;8.40;;;3.53;;
73296;SDS011;61524;50.938;11.396;2024-01-30T05:50:36;7.50;;;3.50;;
73296;SDS011;61524;50.938;11.396;2024-01-30T05:53:01;8.53;;;3.67;;
73296;SDS011;61524;50.938;11.396;2024-01-30T05:55:26;7.13;;;3.43;;
73296;SDS011;61524;50.938;11.396;2024-01-30T05:57:52;10.63;;;4.10;;
73296;SDS011;61524;50.938;11.396;2024-01-30T06:00:17;12.07;;;4.57;;
73296;SDS011;61524;50.938;11.396;2024-01-30T06:02:43;7.90;;;4.05;;
73296;SDS011;61524;50.938;11.396;2024-01-30T06:05:08;8.83;;;3.47;;
73296;SDS011;61524;50.938;11.396;2024-01-30T06:07:33;8.88;;;3.42;;
73296;SDS011;61524;50.938;11.396;2024-01-30T06:09:59;9.40;;;3.37;;
73296;SDS011;61524;50.938;11.396;2024-01-30T06:12:26;8.00;;;4.32;;
73296;SDS011;61524;50.938;11.396;2024-01-30T06:14:52;9.85;;;3.78;;
73296;SDS011;61524;50.938;11.396;2024-01-30T06:17:19;9.65;;;4.25;;
73296;SDS011;61524;50.938;11.396;2024-01-30T06:19:44;10.13;;;4.72;;
73296;SDS011;61524;50.938;11.396;2024-01-30T06:22:09;8.53;;;4.23;;
73296;SDS011;61524;50.938;11.396;2024-01-30T06:24:35;11.90;;;4.45;;
73296;SDS011;61524;50.938;11.396;2024-01-30T06:27:00;8.13;;;4.13;;
73296;SDS011;61524;50.938;11.396;2024-01-30T06:29:26;7.00;;;3.58;;
73296;SDS011;61524;50.938;11.396;2024-01-30T06:31:51;5.55;;;2.67;;
73296;SDS011;61524;50.938;11.396;2024-01-30T06:34:17;7.72;;;3.42;;
73296;SDS011;61524;50.938;11.396;2024-01-30T06:36:42;6.10;;;2.33;;
73296;SDS011;61524;50.938;11.396;2024-01-30T06:39:07;7.80;;;3.07;;
73296;SDS011;61524;50.938;11.396;2024-01-30T06:41:33;7.95;;;3.33;;
73296;SDS011;61524;50.938;11.396;2024-01-30T06:43:58;7.28;;;2.97;;
73296;SDS011;61524;50.938;11.396;2024-01-30T06:46:23;6.03;;;2.78;;
73296;SDS011;61524;50.938;11.396;2024-01-30T06:48:49;6.50;;;2.20;;
73296;SDS011;61524;50.938;11.396;2024-01-30T06:51:14;7.73;;;2.87;;
73296;SDS011;61524;50.938;11.396;2024-01-30T06:53:39;5.65;;;2.88;;
73296;SDS011;61524;50.938;11.396;2024-01-30T06:56:05;5.70;;;2.17;;
73296;SDS011;61524;50.938;11.396;2024-01-30T06:58:30;7.78;;;3.30;;
73296;SDS011;61524;50.938;11.396;2024-01-30T07:00:56;8.90;;;2.90;;
73296;SDS011;61524;50.938;11.396;2024-01-30T07:03:21;5.97;;;2.83;;
73296;SDS011;61524;50.938;11.396;2024-01-30T07:05:47;6.80;;;2.90;;
73296;SDS011;61524;50.938;11.396;2024-01-30T07:08:12;7.68;;;3.08;;
73296;SDS011;61524;50.938;11.396;2024-01-30T07:10:37;8.73;;;2.72;;
73296;SDS011;61524;50.938;11.396;2024-01-30T07:13:03;5.27;;;2.50;;
73296;SDS011;61524;50.938;11.396;2024-01-30T07:15:30;6.28;;;2.95;;
73296;SDS011;61524;50.938;11.396;2024-01-30T07:17:55;5.20;;;2.90;;
73296;SDS011;61524;50.938;11.396;2024-01-30T07:20:20;5.20;;;2.40;;
73296;SDS011;61524;50.938;11.396;2024-01-30T07:22:46;3.72;;;1.67;;
73296;SDS011;61524;50.938;11.396;2024-01-30T07:25:11;3.00;;;1.53;;
73296;SDS011;61524;50.938;11.396;2024-01-30T07:27:36;8.55;;;2.58;;
73296;SDS011;61524;50.938;11.396;2024-01-30T07:30:02;5.73;;;2.37;;
73296;SDS011;61524;50.938;11.396;2024-01-30T07:32:30;6.70;;;2.33;;
73296;SDS011;61524;50.938;11.396;2024-01-30T07:34:56;6.75;;;2.28;;
73296;SDS011;61524;50.938;11.396;2024-01-30T07:37:22;4.13;;;2.20;;
73296;SDS011;61524;50.938;11.396;2024-01-30T07:39:47;8.13;;;2.80;;
73296;SDS011;61524;50.938;11.396;2024-01-30T07:42:12;6.73;;;3.10;;
73296;SDS011;61524;50.938;11.396;2024-01-30T07:44:37;6.03;;;3.00;;
73296;SDS011;61524;50.938;11.396;2024-01-30T07:47:04;6.63;;;2.90;;
73296;SDS011;61524;50.938;11.396;2024-01-30T07:49:30;5.80;;;2.90;;
73296;SDS011;61524;50.938;11.396;2024-01-30T07:51:55;8.20;;;3.30;;
73296;SDS011;61524;50.938;11.396;2024-01-30T07:54:20;5.50;;;2.57;;
73296;SDS011;61524;50.938;11.396;2024-01-30T07:56:45;5.90;;;2.60;;
73296;SDS011;61524;50.938;11.396;2024-01-30T07:59:11;2.87;;;1.30;;
73296;SDS011;61524;50.938;11.396;2024-01-30T08:01:37;4.88;;;2.92;;
73296;SDS011;61524;50.938;11.396;2024-01-30T08:04:02;4.95;;;2.53;;
73296;SDS011;61524;50.938;11.396;2024-01-30T08:06:27;6.40;;;2.97;;
73296;SDS011;61524;50.938;11.396;2024-01-30T08:08:53;4.97;;;2.20;;
73296;SDS011;61524;50.938;11.396;2024-01-30T08:11:20;7.35;;;2.58;;
73296;SDS011;61524;50.938;11.396;2024-01-30T08:13:45;5.25;;;2.75;;
73296;SDS011;61524;50.938;11.396;2024-01-30T08:16:10;4.93;;;2.13;;
73296;SDS011;61524;50.938;11.396;2024-01-30T08:18:36;5.43;;;3.03;;
73296;SDS011;61524;50.938;11.396;2024-01-30T08:21:01;6.23;;;3.10;;
73296;SDS011;61524;50.938;11.396;2024-01-30T08:23:26;7.90;;;3.45;;
73296;SDS011;61524;50.938;11.396;2024-01-30T08:25:52;6.68;;;3.10;;
73296;SDS011;61524;50.938;11.396;2024-01-30T08:28:17;5.63;;;3.23;;
73296;SDS011;61524;50.938;11.396;2024-01-30T08:30:42;5.43;;;2.95;;
73296;SDS011;61524;50.938;11.396;2024-01-30T08:33:07;5.33;;;2.60;;
73296;SDS011;61524;50.938;11.396;2024-01-30T08:35:33;6.87;;;2.17;;
73296;SDS011;61524;50.938;11.396;2024-01-30T08:37:58;5.63;;;2.88;;
73296;SDS011;61524;50.938;11.396;2024-01-30T08:40:23;6.90;;;3.28;;
73296;SDS011;61524;50.938;11.396;2024-01-30T08:42:49;5.83;;;2.73;;
73296;SDS011;61524;50.938;11.396;2024-01-30T08:45:14;4.93;;;1.97;;
73296;SDS011;61524;50.938;11.396;2024-01-30T08:47:40;4.43;;;2.45;;
73296;SDS011;61524;50.938;11.396;2024-01-30T08:50:05;5.78;;;2.72;;
73296;SDS011;61524;50.938;11.396;2024-01-30T08:52:31;5.03;;;2.35;;
73296;SDS011;61524;50.938;11.396;2024-01-30T08:54:56;5.55;;;3.03;;
73296;SDS011;61524;50.938;11.396;2024-01-30T08:57:21;5.23;;;3.23;;
73296;SDS011;61524;50.938;11.396;2024-01-30T08:59:47;7.20;;;2.80;;
73296;SDS011;61524;50.938;11.396;2024-01-30T09:02:13;3.88;;;1.73;;
73296;SDS011;61524;50.938;11.396;2024-01-30T09:04:41;5.93;;;2.78;;
73296;SDS011;61524;50.938;11.396;2024-01-30T09:07:07;5.47;;;2.72;;
73296;SDS011;61524;50.938;11.396;2024-01-30T09:09:34;5.65;;;2.25;;
73296;SDS011;61524;50.938;11.396;2024-01-30T09:11:59;5.73;;;2.50;;
73296;SDS011;61524;50.938;11.396;2024-01-30T09:14:29;5.05;;;2.80;;
73296;SDS011;61524;50.938;11.396;2024-01-30T09:16:54;5.22;;;2.17;;
73296;SDS011;61524;50.938;11.396;2024-01-30T09:19:20;4.13;;;2.30;;
73296;SDS011;61524;50.938;11.396;2024-01-30T09:21:45;4.27;;;1.93;;
73296;SDS011;61524;50.938;11.396;2024-01-30T09:24:10;10.57;;;3.10;;
73296;SDS011;61524;50.938;11.396;2024-01-30T09:26:35;7.43;;;2.70;;
73296;SDS011;61524;50.938;11.396;2024-01-30T09:29:01;4.22;;;2.22;;
73296;SDS011;61524;50.938;11.396;2024-01-30T09:31:26;12.27;;;3.20;;
73296;SDS011;61524;50.938;11.396;2024-01-30T09:33:52;6.15;;;3.15;;
73296;SDS011;61524;50.938;11.396;2024-01-30T09:36:19;5.65;;;2.85;;
73296;SDS011;61524;50.938;11.396;2024-01-30T09:38:44;5.10;;;2.63;;
73296;SDS011;61524;50.938;11.396;2024-01-30T09:41:10;5.60;;;3.08;;
73296;SDS011;61524;50.938;11.396;2024-01-30T09:43:38;7.65;;;2.90;;
73296;SDS011;61524;50.938;11.396;2024-01-30T09:46:04;8.20;;;3.63;;
73296;SDS011;61524;50.938;11.396;2024-01-30T09:48:30;6.78;;;3.42;;
73296;SDS011;61524;50.938;11.396;2024-01-30T09:50:56;7.30;;;3.47;;
73296;SDS011;61524;50.938;11.396;2024-01-30T09:53:22;3.50;;;1.90;;
73296;SDS011;61524;50.938;11.396;2024-01-30T09:55:47;8.63;;;3.47;;
73296;SDS011;61524;50.938;11.396;2024-01-30T09:58:15;6.57;;;3.05;;
73296;SDS011;61524;50.938;11.396;2024-01-30T10:00:41;11.23;;;3.35;;
73296;SDS011;61524;50.938;11.396;2024-01-30T10:03:06;7.50;;;3.58;;
73296;SDS011;61524;50.938;11.396;2024-01-30T10:05:31;5.83;;;3.47;;
73296;SDS011;61524;50.938;11.396;2024-01-30T10:07:59;7.28;;;3.10;;
73296;SDS011;61524;50.938;11.396;2024-01-30T10:10:24;6.97;;;3.45;;
73296;SDS011;61524;50.938;11.396;2024-01-30T10:12:50;5.20;;;3.27;;
73296;SDS011;61524;50.938;11.396;2024-01-30T10:15:15;6.77;;;3.80;;
73296;SDS011;61524;50.938;11.396;2024-01-30T10:17:40;7.30;;;2.92;;
73296;SDS011;61524;50.938;11.396;2024-01-30T10:20:06;6.63;;;3.28;;
73296;SDS011;61524;50.938;11.396;2024-01-30T10:22:32;6.72;;;3.13;;
73296;SDS011;61524;50.938;11.396;2024-01-30T10:24:58;7.03;;;3.78;;
73296;SDS011;61524;50.938;11.396;2024-01-30T10:27:25;6.50;;;3.28;;
73296;SDS011;61524;50.938;11.396;2024-01-30T10:29:50;5.78;;;3.20;;
73296;SDS011;61524;50.938;11.396;2024-01-30T10:32:16;7.78;;;3.30;;
73296;SDS011;61524;50.938;11.396;2024-01-30T10:34:42;7.75;;;3.22;;
73296;SDS011;61524;50.938;11.396;2024-01-30T10:39:38;5.18;;;2.92;;
73296;SDS011;61524;50.938;11.396;2024-01-30T10:42:04;6.88;;;3.83;;
73296;SDS011;61524;50.938;11.396;2024-01-30T10:44:30;6.40;;;3.50;;
73296;SDS011;61524;50.938;11.396;2024-01-30T10:47:00;5.97;;;2.95;;
73296;SDS011;61524;50.938;11.396;2024-01-30T10:49:28;6.28;;;3.15;;
73296;SDS011;61524;50.938;11.396;2024-01-30T10:51:53;6.22;;;2.97;;
73296;SDS011;61524;50.938;11.396;2024-01-30T10:54:19;6.70;;;3.55;;
73296;SDS011;61524;50.938;11.396;2024-01-30T10:56:45;5.65;;;2.70;;
73296;SDS011;61524;50.938;11.396;2024-01-30T10:59:11;6.07;;;2.90;;
73296;SDS011;61524;50.938;11.396;2024-01-30T11:01:38;6.35;;;3.42;;
73296;SDS011;61524;50.938;11.396;2024-01-30T11:04:03;5.97;;;3.10;;
73296;SDS011;61524;50.938;11.396;2024-01-30T11:06:29;5.82;;;2.88;;
73296;SDS011;61524;50.938;11.396;2024-01-30T11:09:04;6.40;;;3.00;;
73296;SDS011;61524;50.938;11.396;2024-01-30T11:14:15;7.00;;;3.10;;
73296;SDS011;61524;50.938;11.396;2024-01-30T11:16:40;6.83;;;2.90;;
73296;SDS011;61524;50.938;11.396;2024-01-30T11:19:05;7.80;;;3.20;;
73296;SDS011;61524;50.938;11.396;2024-01-30T11:21:40;6.28;;;3.30;;
73296;SDS011;61524;50.938;11.396;2024-01-30T11:24:05;4.72;;;2.63;;
73296;SDS011;61524;50.938;11.396;2024-01-30T11:26:32;5.68;;;3.10;;
73296;SDS011;61524;50.938;11.396;2024-01-30T11:28:58;6.20;;;3.00;;
73296;SDS011;61524;50.938;11.396;2024-01-30T11:31:23;6.70;;;3.10;;
73296;SDS011;61524;50.938;11.396;2024-01-30T11:33:52;5.77;;;2.93;;
73296;SDS011;61524;50.938;11.396;2024-01-30T11:36:17;6.03;;;2.92;;
73296;SDS011;61524;50.938;11.396;2024-01-30T11:38:46;5.43;;;2.60;;
73296;SDS011;61524;50.938;11.396;2024-01-30T11:41:12;6.35;;;2.90;;
73296;SDS011;61524;50.938;11.396;2024-01-30T11:43:38;6.28;;;3.20;;
73296;SDS011;61524;50.938;11.396;2024-01-30T11:46:05;6.30;;;2.83;;
73296;SDS011;61524;50.938;11.396;2024-01-30T11:50:55;4.43;;;2.50;;
73296;SDS011;61524;50.938;11.396;2024-01-30T11:53:21;7.10;;;3.17;;
73296;SDS011;61524;50.938;11.396;2024-01-30T11:55:50;6.05;;;2.58;;
73296;SDS011;61524;50.938;11.396;2024-01-30T11:58:15;6.35;;;3.40;;
73296;SDS011;61524;50.938;11.396;2024-01-30T12:00:41;6.47;;;3.30;;
73296;SDS011;61524;50.938;11.396;2024-01-30T12:03:06;6.68;;;3.38;;
73296;SDS011;61524;50.938;11.396;2024-01-30T12:05:32;4.82;;;2.47;;
73296;SDS011;61524;50.938;11.396;2024-01-30T12:07:57;6.28;;;2.70;;
73296;SDS011;61524;50.938;11.396;2024-01-30T12:10:24;7.00;;;2.75;;
73296;SDS011;61524;50.938;11.396;2024-01-30T12:12:49;6.07;;;3.15;;
73296;SDS011;61524;50.938;11.396;2024-01-30T12:15:15;5.00;;;2.60;;
73296;SDS011;61524;50.938;11.396;2024-01-30T12:17:41;6.75;;;2.90;;
73296;SDS011;61524;50.938;11.396;2024-01-30T12:20:07;6.82;;;3.10;;
73296;SDS011;61524;50.938;11.396;2024-01-30T12:22:42;6.03;;;2.80;;
73296;SDS011;61524;50.938;11.396;2024-01-30T12:25:12;5.18;;;2.90;;
73296;SDS011;61524;50.938;11.396;2024-01-30T12:27:38;4.95;;;2.70;;
73296;SDS011;61524;50.938;11.396;2024-01-30T12:30:06;6.85;;;3.05;;
73296;SDS011;61524;50.938;11.396;2024-01-30T12:32:34;7.22;;;3.50;;
73296;SDS011;61524;50.938;11.396;2024-01-30T12:34:59;5.35;;;2.78;;
73296;SDS011;61524;50.938;11.396;2024-01-30T12:37:24;5.73;;;2.97;;
73296;SDS011;61524;50.938;11.396;2024-01-30T12:39:53;6.13;;;2.70;;
73296;SDS011;61524;50.938;11.396;2024-01-30T12:42:19;5.55;;;2.95;;
73296;SDS011;61524;50.938;11.396;2024-01-30T12:44:44;6.72;;;3.25;;
73296;SDS011;61524;50.938;11.396;2024-01-30T12:47:10;6.70;;;3.03;;
73296;SDS011;61524;50.938;11.396;2024-01-30T12:49:35;5.82;;;2.72;;
73296;SDS011;61524;50.938;11.396;2024-01-30T12:52:00;6.87;;;2.77;;
73296;SDS011;61524;50.938;11.396;2024-01-30T12:54:26;6.85;;;2.72;;
73296;SDS011;61524;50.938;11.396;2024-01-30T12:56:51;6.20;;;3.77;;
73296;SDS011;61524;50.938;11.396;2024-01-30T12:59:16;4.90;;;2.90;;
73296;SDS011;61524;50.938;11.396;2024-01-30T13:01:42;5.75;;;2.65;;
73296;SDS011;61524;50.938;11.396;2024-01-30T13:04:07;5.88;;;3.05;;
73296;SDS011;61524;50.938;11.396;2024-01-30T13:06:32;8.53;;;2.87;;
73296;SDS011;61524;50.938;11.396;2024-01-30T13:08:58;4.30;;;2.63;;
73296;SDS011;61524;50.938;11.396;2024-01-30T13:11:23;5.90;;;3.05;;
73296;SDS011;61524;50.938;11.396;2024-01-30T13:13:50;5.75;;;3.13;;
73296;SDS011;61524;50.938;11.396;2024-01-30T13:16:15;6.97;;;2.73;;
73296;SDS011;61524;50.938;11.396;2024-01-30T13:18:41;8.43;;;3.10;;
73296;SDS011;61524;50.938;11.396;2024-01-30T13:21:06;7.47;;;3.53;;
73296;SDS011;61524;50.938;11.396;2024-01-30T13:23:32;6.43;;;3.22;;
73296;SDS011;61524;50.938;11.396;2024-01-30T13:25:57;4.72;;;2.35;;
73296;SDS011;61524;50.938;11.396;2024-01-30T13:28:23;6.85;;;3.80;;
73296;SDS011;61524;50.938;11.396;2024-01-30T13:30:49;5.95;;;2.45;;
73296;SDS011;61524;50.938;11.396;2024-01-30T13:33:14;5.20;;;2.87;;
73296;SDS011;61524;50.938;11.396;2024-01-30T13:35:39;6.97;;;2.90;;
73296;SDS011;61524;50.938;11.396;2024-01-30T13:38:04;5.30;;;2.90;;
73296;SDS011;61524;50.938;11.396;2024-01-30T13:40:30;6.75;;;3.47;;
73296;SDS011;61524;50.938;11.396;2024-01-30T13:42:55;5.55;;;3.05;;
73296;SDS011;61524;50.938;11.396;2024-01-30T13:45:20;6.00;;;2.60;;
73296;SDS011;61524;50.938;11.396;2024-01-30T13:47:46;8.27;;;2.80;;
73296;SDS011;61524;50.938;11.396;2024-01-30T13:50:11;5.67;;;2.90;;
73296;SDS011;61524;50.938;11.396;2024-01-30T13:52:40;4.43;;;2.53;;
73296;SDS011;61524;50.938;11.396;2024-01-30T13:55:05;5.18;;;2.92;;
73296;SDS011;61524;50.938;11.396;2024-01-30T13:57:31;5.50;;;2.85;;
73296;SDS011;61524;50.938;11.396;2024-01-30T14:00:00;5.47;;;2.35;;
73296;SDS011;61524;50.938;11.396;2024-01-30T14:02:25;5.20;;;2.83;;
73296;SDS011;61524;50.938;11.396;2024-01-30T14:04:50;8.30;;;3.27;;
73296;SDS011;61524;50.938;11.396;2024-01-30T14:07:15;7.60;;;3.27;;
73296;SDS011;61524;50.938;11.396;2024-01-30T14:09:43;7.03;;;3.03;;
73296;SDS011;61524;50.938;11.396;2024-01-30T14:12:08;5.40;;;2.45;;
73296;SDS011;61524;50.938;11.396;2024-01-30T14:14:33;8.15;;;2.83;;
73296;SDS011;61524;50.938;11.396;2024-01-30T14:16:59;5.40;;;2.93;;
73296;SDS011;61524;50.938;11.396;2024-01-30T14:19:24;6.68;;;3.10;;
73296;SDS011;61524;50.938;11.396;2024-01-30T14:21:50;4.82;;;2.38;;
73296;SDS011;61524;50.938;11.396;2024-01-30T14:24:15;5.00;;;2.87;;
73296;SDS011;61524;50.938;11.396;2024-01-30T14:26:40;6.53;;;2.63;;
73296;SDS011;61524;50.938;11.396;2024-01-30T14:29:06;6.28;;;2.53;;
73296;SDS011;61524;50.938;11.396;2024-01-30T14:31:31;5.53;;;2.37;;